Lawton, Kentucky
Current Conditions -  °F | °C
As of 8:30 PM on Tuesday 25 Nov 2014 (Local Time) from KSYM Reporting Station
Clear Clear  
Wind Chill: 34°   Ceiling: Unl
Heat Index: 39°   Visibility: 10mi
Dew Point: 27°   Wind: 7mph
Humidity: 61%   Direction: 310°NW
Pressure: 30.17"   Gusts: NA
Location:  38.3543°N, 83.1837°W
Report Text: KSYM 260130Z AUTO 31006KT 10SM CLR 04/M03 A3017 RMK AO2
Loading
Personal Weather Stations






























Interactive Weather Map New forecast layout! Learn more

10-Day Weather Forecast

Advertisements
Track Severe Weather on mobile